Time;durP1;ratioP1;P1;durP2;ratioP2;P2;SDS_P1;SDS_P2;PMS_P1;PMS_P2;Temp;Humidity;BMP_temperature;BMP_pressure;BME280_temperature;BME280_humidity;BME280_pressure;Samples;Min_cycle;Max_cycle;Signal;HPM_P1;HPM_P2
2021/11/09 00:00:09;;;;;;;9.93;4.93;;;17.80;66.40;;;;;;5050098;28;20029;-78
2021/11/09 00:02:34;;;;;;;11.35;5.57;;;17.90;66.40;;;;;;5049814;28;20092;-78
2021/11/09 00:05:02;;;;;;;9.13;5.13;;;17.80;66.50;;;;;;5049909;28;20108;-78
2021/11/09 00:07:38;;;;;;;9.75;4.55;;;17.80;66.50;;;;;;5049926;28;20029;-79
2021/11/09 00:10:08;;;;;;;11.40;4.32;;;17.80;66.40;;;;;;5049915;28;20104;-79
2021/11/09 00:12:44;;;;;;;10.98;4.53;;;17.80;66.20;;;;;;5049401;28;20070;-79
2021/11/09 00:15:14;;;;;;;8.43;4.25;;;17.80;66.20;;;;;;5049155;28;20033;-79
2021/11/09 00:17:40;;;;;;;7.65;4.00;;;17.80;66.10;;;;;;5049431;28;20021;-80
2021/11/09 00:20:09;;;;;;;8.00;3.95;;;17.70;66.00;;;;;;5049830;28;20037;-79
2021/11/09 00:22:35;;;;;;;10.02;4.35;;;17.70;66.00;;;;;;5049393;28;20048;-79
2021/11/09 00:25:00;;;;;;;11.00;4.88;;;17.70;66.00;;;;;;5049547;28;20489;-79
2021/11/09 00:27:26;;;;;;;9.20;4.28;;;17.70;65.90;;;;;;5049952;28;20063;-79
2021/11/09 00:29:52;;;;;;;9.07;4.10;;;17.70;65.80;;;;;;5049922;28;20541;-80
2021/11/09 00:32:18;;;;;;;9.65;4.75;;;17.70;65.70;;;;;;5049567;28;20025;-80
2021/11/09 00:34:45;;;;;;;10.63;4.38;;;17.70;65.70;;;;;;5049031;28;20560;-80
2021/11/09 00:37:12;;;;;;;9.02;4.53;;;17.70;65.70;;;;;;5048070;28;20029;-80
2021/11/09 00:39:41;;;;;;;7.78;3.80;;;17.70;65.60;;;;;;5049291;28;20037;-80
2021/11/09 00:42:06;;;;;;;7.03;3.75;;;17.60;65.50;;;;;;5049352;28;20066;-80
2021/11/09 00:44:32;;;;;;;9.07;4.85;;;17.60;65.50;;;;;;5049192;28;20028;-79
2021/11/09 00:46:58;;;;;;;8.98;4.43;;;17.60;65.50;;;;;;5049169;28;20481;-80
2021/11/09 00:49:23;;;;;;;8.75;4.40;;;17.60;65.50;;;;;;5049739;28;20499;-80
2021/11/09 00:51:50;;;;;;;9.82;4.30;;;17.60;65.50;;;;;;5048928;28;20374;-80
2021/11/09 00:54:17;;;;;;;10.27;4.45;;;17.50;65.40;;;;;;5049202;28;20041;-80
2021/11/09 00:56:44;;;;;;;8.15;4.15;;;17.50;65.40;;;;;;5048644;28;20029;-80
2021/11/09 00:59:10;;;;;;;10.75;4.97;;;17.50;65.30;;;;;;5049152;28;20100;-80
2021/11/09 01:01:37;;;;;;;9.55;4.43;;;17.50;65.30;;;;;;5047800;28;20033;-80
2021/11/09 01:04:03;;;;;;;10.02;4.70;;;17.50;65.20;;;;;;5049042;28;20021;-79
2021/11/09 01:06:29;;;;;;;8.95;4.18;;;17.50;65.20;;;;;;5047391;28;20028;-79
2021/11/09 01:08:54;;;;;;;10.02;4.60;;;17.50;65.20;;;;;;5049342;28;20021;-79
2021/11/09 01:11:20;;;;;;;9.48;4.60;;;17.50;65.10;;;;;;5048776;28;20061;-80
2021/11/09 01:13:47;;;;;;;10.95;4.55;;;17.40;65.00;;;;;;5048564;28;20477;-79
2021/11/09 01:16:13;;;;;;;6.70;3.88;;;17.40;65.10;;;;;;5048876;28;20477;-80
2021/11/09 01:18:44;;;;;;;8.23;4.32;;;17.40;65.00;;;;;;5048646;28;20086;-79
2021/11/09 01:21:14;;;;;;;9.32;4.35;;;17.40;64.90;;;;;;5047235;28;20029;-78
2021/11/09 01:23:44;;;;;;;9.27;4.20;;;17.40;64.90;;;;;;5047161;28;20024;-79
2021/11/09 01:26:11;;;;;;;7.95;3.70;;;17.40;65.00;;;;;;5048447;28;20031;-79
2021/11/09 01:28:38;;;;;;;7.63;4.07;;;17.40;64.70;;;;;;5048452;28;20112;-79
2021/11/09 01:31:06;;;;;;;6.97;3.75;;;17.40;64.50;;;;;;5048671;28;20040;-79
2021/11/09 01:33:32;;;;;;;8.63;4.50;;;17.40;64.40;;;;;;5048313;28;20037;-78
2021/11/09 01:35:58;;;;;;;7.60;4.10;;;17.40;64.30;;;;;;5048509;28;20017;-78
2021/11/09 01:38:24;;;;;;;9.60;4.32;;;17.40;64.20;;;;;;5048982;28;20073;-79
2021/11/09 01:40:49;;;;;;;9.20;4.30;;;17.50;64.30;;;;;;5048310;28;20055;-79
2021/11/09 01:43:16;;;;;;;10.18;4.30;;;17.40;64.10;;;;;;5048478;28;20022;-79
2021/11/09 01:45:44;;;;;;;9.48;4.50;;;17.40;64.00;;;;;;5048302;28;20062;-79
2021/11/09 01:48:10;;;;;;;8.30;4.18;;;17.40;64.00;;;;;;5048467;28;20047;-79
2021/11/09 01:50:40;;;;;;;9.15;4.60;;;17.40;63.90;;;;;;5047961;28;20025;-78
2021/11/09 01:53:08;;;;;;;7.25;4.22;;;17.50;64.00;;;;;;5048023;28;20031;-80
2021/11/09 01:55:35;;;;;;;9.38;4.50;;;17.40;63.80;;;;;;5048103;28;20029;-79
2021/11/09 01:58:02;;;;;;;9.40;4.40;;;17.50;63.80;;;;;;5047220;28;20118;-79
2021/11/09 02:00:31;;;;;;;6.70;3.83;;;17.40;63.70;;;;;;5047953;28;20032;-79
2021/11/09 02:02:57;;;;;;;9.65;5.10;;;17.40;63.60;;;;;;5048110;28;20018;-79
2021/11/09 02:05:24;;;;;;;9.48;4.65;;;17.50;63.60;;;;;;5048341;28;20496;-78
2021/11/09 02:07:53;;;;;;;9.57;4.40;;;17.50;63.60;;;;;;5047728;28;20017;-79
2021/11/09 02:10:23;;;;;;;10.30;4.68;;;17.50;63.60;;;;;;5048205;28;20070;-79
2021/11/09 02:12:49;;;;;;;8.57;4.18;;;17.40;63.50;;;;;;5047808;28;20455;-79
2021/11/09 02:15:15;;;;;;;10.30;4.72;;;17.50;63.50;;;;;;5048070;28;20112;-78
2021/11/09 02:17:44;;;;;;;9.77;4.50;;;17.50;63.60;;;;;;5047697;28;20081;-80
2021/11/09 02:20:11;;;;;;;8.45;4.65;;;17.50;63.30;;;;;;5047777;28;20438;-79
2021/11/09 02:22:38;;;;;;;8.55;5.05;;;17.50;63.30;;;;;;5047486;28;20052;-79
2021/11/09 02:25:06;;;;;;;10.80;4.82;;;17.50;63.30;;;;;;5047806;28;20021;-79
2021/11/09 02:27:32;;;;;;;7.88;4.05;;;17.50;63.20;;;;;;5047496;28;20108;-79
2021/11/09 02:29:58;;;;;;;8.30;4.05;;;17.50;63.20;;;;;;5047754;28;20100;-78
2021/11/09 02:32:24;;;;;;;7.93;4.20;;;17.50;63.20;;;;;;5046851;28;20036;-80
2021/11/09 02:34:49;;;;;;;9.38;4.85;;;17.50;63.10;;;;;;5047601;28;20064;-79
2021/11/09 02:37:16;;;;;;;8.48;4.00;;;17.50;63.10;;;;;;5049625;28;20021;-79
2021/11/09 02:39:43;;;;;;;9.07;4.32;;;17.50;63.00;;;;;;5050924;28;20071;-79
2021/11/09 02:42:11;;;;;;;8.27;4.60;;;17.50;63.00;;;;;;5051232;28;20021;-79
2021/11/09 02:44:37;;;;;;;9.55;4.22;;;17.50;62.90;;;;;;5050878;28;20036;-80
2021/11/09 02:47:07;;;;;;;9.13;4.22;;;17.50;62.90;;;;;;5050995;28;20025;-79
2021/11/09 02:50:36;;;;;;;9.13;5.10;;;17.50;62.80;;;;;;5050724;28;20017;-79
2021/11/09 02:52:30;;;;;;;7.20;3.70;;;17.50;62.80;;;;;;5037410;28;20056;-79
2021/11/09 02:55:05;;;;;;;6.40;3.92;;;17.50;62.80;;;;;;5051351;28;20438;-78
2021/11/09 02:57:41;;;;;;;11.60;4.75;;;17.50;62.60;;;;;;5050780;28;20033;-78
2021/11/09 03:00:33;;;;;;;8.15;4.38;;;17.50;62.60;;;;;;5050778;28;20036;-79
2021/11/09 03:03:09;;;;;;;8.55;4.63;;;17.50;62.50;;;;;;5050873;28;20025;-79
2021/11/09 03:05:52;;;;;;;7.50;4.07;;;17.50;62.50;;;;;;5050737;28;20388;-80
2021/11/09 03:08:28;;;;;;;10.40;4.82;;;17.50;62.50;;;;;;5050894;28;20021;-81
2021/11/09 03:10:55;;;;;;;8.50;4.22;;;17.50;62.40;;;;;;5051168;28;20029;-81
2021/11/09 03:13:22;;;;;;;7.25;3.63;;;17.50;62.40;;;;;;5050546;28;20068;-80
2021/11/09 03:15:50;;;;;;;9.93;4.50;;;17.50;62.40;;;;;;5050465;28;20029;-80
2021/11/09 03:18:18;;;;;;;9.35;4.13;;;17.50;62.40;;;;;;5050563;28;20025;-80
2021/11/09 03:45:23;;;;;;;7.93;4.15;;;17.60;62.10;;;;;;5049939;28;20501;-79
2021/11/09 03:47:53;;;;;;;7.07;3.47;;;17.60;62.00;;;;;;5049107;28;20036;-79
2021/11/09 03:50:20;;;;;;;8.85;4.13;;;17.60;62.00;;;;;;5050091;28;20075;-79
2021/11/09 03:52:52;;;;;;;7.72;4.38;;;17.60;62.00;;;;;;5049881;28;20388;-79
2021/11/09 03:55:29;;;;;;;8.90;3.80;;;17.60;61.90;;;;;;5048695;28;20044;-78
2021/11/09 03:58:12;;;;;;;9.85;4.20;;;17.60;61.90;;;;;;5050526;28;20065;-78
2021/11/09 04:00:51;;;;;;;8.90;4.18;;;17.60;61.90;;;;;;5048425;28;20472;-78
2021/11/09 04:03:48;;;;;;;7.35;4.07;;;17.60;61.80;;;;;;5049953;28;20040;-78
2021/11/09 04:09:14;;;;;;;8.27;3.95;;;17.60;61.70;;;;;;5049405;28;20085;-78
2021/11/09 04:11:51;;;;;;;8.57;4.40;;;17.60;61.70;;;;;;5049733;28;20021;-79
2021/11/09 04:20:09;;;;;;;7.80;3.28;;;17.60;61.60;;;;;;4988914;28;20521;-79
2021/11/09 04:31:01;;;;;;;7.40;3.97;;;17.60;61.50;;;;;;5049569;28;20032;-80
2021/11/09 05:02:47;;;;;;;7.05;3.40;;;17.70;61.30;;;;;;5048771;28;20123;-78
2021/11/09 05:08:23;;;;;;;9.25;3.80;;;17.70;61.30;;;;;;5049388;28;20515;-78
2021/11/09 05:10:51;;;;;;;9.32;3.97;;;17.70;61.30;;;;;;5048928;28;20045;-79
2021/11/09 05:13:17;;;;;;;7.03;3.28;;;17.70;61.30;;;;;;5048357;28;20029;-78
2021/11/09 05:15:43;;;;;;;8.25;4.10;;;17.70;61.30;;;;;;5048785;28;20401;-79
2021/11/09 05:18:09;;;;;;;7.53;4.05;;;17.70;61.20;;;;;;5048771;28;20466;-79
2021/11/09 05:20:34;;;;;;;7.07;3.80;;;17.70;61.20;;;;;;5048832;28;20032;-79
2021/11/09 05:23:00;;;;;;;5.95;3.15;;;17.70;61.20;;;;;;5048856;28;20032;-78
2021/11/09 05:25:27;;;;;;;6.07;3.13;;;17.70;61.20;;;;;;5048844;28;20024;-79
2021/11/09 05:27:53;;;;;;;7.10;3.78;;;17.70;61.20;;;;;;5048213;28;20509;-79
2021/11/09 05:30:20;;;;;;;7.68;3.55;;;17.70;61.20;;;;;;5047161;28;20968;-79
2021/11/09 05:32:46;;;;;;;6.07;3.55;;;17.70;61.20;;;;;;5047253;28;20385;-78
2021/11/09 05:35:12;;;;;;;6.25;3.33;;;17.70;61.10;;;;;;5048173;28;20051;-79
2021/11/09 05:37:47;;;;;;;8.10;3.40;;;17.70;61.10;;;;;;5048546;28;20025;-79
2021/11/09 05:40:13;;;;;;;6.93;3.40;;;17.70;61.10;;;;;;5048351;28;20017;-79
2021/11/09 05:42:39;;;;;;;9.38;3.80;;;17.70;61.10;;;;;;5048336;28;20036;-79
2021/11/09 05:45:06;;;;;;;8.18;3.50;;;17.70;61.30;;;;;;5048608;28;20029;-78
2021/11/09 05:47:32;;;;;;;6.35;2.85;;;17.70;61.00;;;;;;5047859;28;20064;-78
2021/11/09 05:49:58;;;;;;;6.72;3.20;;;17.70;61.10;;;;;;5048730;28;20089;-78
2021/11/09 05:52:23;;;;;;;7.03;3.70;;;17.70;61.10;;;;;;5047811;28;20488;-78
2021/11/09 05:54:49;;;;;;;6.15;3.17;;;17.70;61.10;;;;;;5048099;28;20046;-78
2021/11/09 05:57:15;;;;;;;6.97;3.50;;;17.80;61.10;;;;;;5047969;28;20536;-79
2021/11/09 05:59:41;;;;;;;5.85;3.03;;;17.80;61.10;;;;;;5048204;28;20085;-78
2021/11/09 06:02:07;;;;;;;7.03;3.58;;;17.80;61.10;;;;;;5048203;28;20048;-78
2021/11/09 06:04:32;;;;;;;6.35;3.03;;;17.80;61.00;;;;;;5047997;28;20423;-79
2021/11/09 06:06:58;;;;;;;6.50;3.40;;;17.80;60.90;;;;;;5048327;28;20029;-79
2021/11/09 06:09:24;;;;;;;8.15;3.38;;;17.90;60.90;;;;;;5047618;28;20021;-78
2021/11/09 06:11:49;;;;;;;6.65;3.78;;;17.90;60.80;;;;;;5046908;28;20090;-79
2021/11/09 06:14:15;;;;;;;5.22;2.75;;;17.90;60.80;;;;;;5047842;28;20029;-79
2021/11/09 06:16:41;;;;;;;6.97;3.47;;;18.00;60.80;;;;;;5047639;28;20070;-78
2021/11/09 06:19:07;;;;;;;8.30;3.33;;;18.00;60.70;;;;;;5047844;28;20029;-78
2021/11/09 06:21:33;;;;;;;6.47;3.33;;;18.00;60.70;;;;;;5047601;28;20029;-79
2021/11/09 06:23:59;;;;;;;7.82;3.53;;;18.00;60.70;;;;;;5048164;28;20493;-79
2021/11/09 06:26:25;;;;;;;7.03;3.60;;;18.00;60.60;;;;;;5047589;28;20166;-78
2021/11/09 06:28:56;;;;;;;6.13;2.83;;;18.10;60.80;;;;;;5047914;28;20021;-81
2021/11/09 06:31:22;;;;;;;6.18;3.00;;;18.10;60.80;;;;;;5047523;28;20116;-78
2021/11/09 06:33:47;;;;;;;7.88;3.55;;;18.10;60.80;;;;;;5047589;28;20070;-79
2021/11/09 06:36:13;;;;;;;6.47;3.35;;;18.10;60.90;;;;;;5047514;28;20495;-79
2021/11/09 06:38:39;;;;;;;5.72;3.17;;;18.10;60.80;;;;;;5047900;28;20018;-80
2021/11/09 06:41:05;;;;;;;7.10;3.22;;;18.20;61.00;;;;;;5047601;28;20035;-80
2021/11/09 06:43:31;;;;;;;5.80;2.70;;;18.10;61.10;;;;;;5047778;28;20492;-79
2021/11/09 06:45:57;;;;;;;5.55;2.83;;;18.20;61.30;;;;;;5047585;28;20041;-80
2021/11/09 06:48:24;;;;;;;9.05;3.30;;;18.20;61.50;;;;;;5047417;28;20032;-78
2021/11/09 06:50:50;;;;;;;6.78;3.50;;;18.20;61.90;;;;;;5052352;28;20021;-79
2021/11/09 06:53:16;;;;;;;7.60;3.20;;;18.30;62.30;;;;;;5051034;28;20032;-79
2021/11/09 06:55:42;;;;;;;6.95;3.17;;;18.30;62.10;;;;;;5047546;28;20058;-76
2021/11/09 06:58:08;;;;;;;6.82;3.72;;;18.30;62.40;;;;;;5047437;28;20393;-79
2021/11/09 07:00:35;;;;;;;10.15;3.72;;;18.40;63.00;;;;;;5047359;28;20049;-77
2021/11/09 07:03:00;;;;;;;12.27;3.55;;;18.40;63.00;;;;;;5047614;28;20026;-77
2021/11/09 07:05:27;;;;;;;8.88;3.45;;;18.40;62.80;;;;;;5047283;28;20021;-76
2021/11/09 07:07:53;;;;;;;9.23;3.58;;;18.50;63.10;;;;;;5047133;28;20036;-77
2021/11/09 07:10:19;;;;;;;9.60;3.65;;;18.50;63.10;;;;;;5046992;28;20033;-78
2021/11/09 07:12:45;;;;;;;8.73;3.42;;;18.60;63.10;;;;;;5047326;28;20025;-77
2021/11/09 07:15:12;;;;;;;10.45;3.50;;;18.60;62.90;;;;;;5046982;28;20033;-77
2021/11/09 07:17:39;;;;;;;10.60;3.50;;;18.60;62.60;;;;;;5047411;28;20021;-78
2021/11/09 07:20:17;;;;;;;10.02;3.80;;;18.60;62.60;;;;;;5045862;28;20029;-79
2021/11/09 07:22:44;;;;;;;8.63;3.67;;;18.60;62.40;;;;;;5048240;28;20087;-79
2021/11/09 07:25:10;;;;;;;9.73;3.63;;;18.60;62.40;;;;;;5049989;28;20544;-79
2021/11/09 07:27:36;;;;;;;8.90;3.50;;;18.60;62.30;;;;;;5050670;28;20017;-79
2021/11/09 07:30:04;;;;;;;9.43;3.28;;;18.60;62.30;;;;;;5050676;28;20049;-78
2021/11/09 07:32:30;;;;;;;11.15;3.40;;;18.60;62.40;;;;;;5045601;28;20105;-79
2021/11/09 07:34:56;;;;;;;10.45;3.90;;;18.60;62.40;;;;;;5040393;28;20497;-78
2021/11/09 07:37:22;;;;;;;9.18;3.50;;;18.60;62.40;;;;;;5028473;28;20034;-78
2021/11/09 07:39:49;;;;;;;7.25;3.20;;;18.60;62.40;;;;;;5046064;28;20085;-78
2021/11/09 07:42:15;;;;;;;6.68;3.10;;;18.60;62.30;;;;;;5050241;28;20096;-81
2021/11/09 07:44:42;;;;;;;7.72;3.10;;;18.60;62.20;;;;;;5048856;28;20116;-80
2021/11/09 07:47:07;;;;;;;7.88;3.20;;;18.60;62.20;;;;;;5049571;28;20029;-81
2021/11/09 07:49:33;;;;;;;8.45;3.20;;;18.60;62.20;;;;;;5049718;28;20028;-80
2021/11/09 07:52:00;;;;;;;9.48;3.30;;;18.50;62.10;;;;;;5034305;28;20071;-79
2021/11/09 07:54:30;;;;;;;7.80;3.10;;;18.50;62.00;;;;;;5030068;28;20037;-79
2021/11/09 07:57:08;;;;;;;9.43;2.88;;;18.50;61.90;;;;;;5030344;28;20022;-79
2021/11/09 07:59:46;;;;;;;8.27;3.28;;;18.50;61.90;;;;;;5030210;28;20036;-80
2021/11/09 08:02:23;;;;;;;7.32;2.90;;;18.50;61.90;;;;;;5031938;28;20018;-77
2021/11/09 08:04:54;;;;;;;6.40;2.88;;;18.50;61.80;;;;;;5029591;28;20025;-77
2021/11/09 08:07:26;;;;;;;7.25;2.90;;;18.50;61.70;;;;;;5031910;28;20041;-77
2021/11/09 08:09:52;;;;;;;10.25;3.35;;;18.50;61.70;;;;;;5037201;28;20413;-79
2021/11/09 08:12:18;;;;;;;11.93;3.67;;;18.40;61.60;;;;;;5042395;28;20385;-77
2021/11/09 08:14:44;;;;;;;8.23;2.97;;;18.40;61.60;;;;;;5029540;28;20032;-77
2021/11/09 08:17:09;;;;;;;6.55;2.88;;;18.40;61.60;;;;;;5029200;28;20385;-77
2021/11/09 08:19:35;;;;;;;9.23;3.40;;;18.40;61.60;;;;;;5028675;28;20025;-77
2021/11/09 08:22:03;;;;;;;7.60;2.90;;;18.40;61.50;;;;;;5030122;28;20029;-76
2021/11/09 08:24:29;;;;;;;9.18;3.80;;;18.40;61.60;;;;;;5028483;28;20553;-77
2021/11/09 08:26:56;;;;;;;6.82;2.97;;;18.40;61.50;;;;;;5027803;28;20137;-76
2021/11/09 08:29:25;;;;;;;11.80;3.35;;;18.30;61.30;;;;;;5029148;28;20114;-77
2021/11/09 08:31:54;;;;;;;6.05;2.65;;;18.30;61.40;;;;;;5029553;28;20503;-76
2021/11/09 08:34:20;;;;;;;8.15;2.70;;;18.30;61.40;;;;;;5028470;28;20086;-76
2021/11/09 08:36:47;;;;;;;10.63;3.45;;;18.30;61.30;;;;;;5029361;28;20512;-76
2021/11/09 08:39:22;;;;;;;8.55;3.30;;;18.30;61.30;;;;;;5029065;28;20029;-76
2021/11/09 08:42:11;;;;;;;6.85;3.28;;;18.20;61.30;;;;;;5030029;28;20481;-76
2021/11/09 08:44:47;;;;;;;7.78;3.55;;;18.20;61.30;;;;;;5029414;28;20094;-77
2021/11/09 08:47:17;;;;;;;6.78;3.00;;;18.20;61.20;;;;;;5028964;28;20040;-78
2021/11/09 08:49:44;;;;;;;6.38;3.03;;;18.20;61.20;;;;;;5029374;28;20041;-77
2021/11/09 08:52:12;;;;;;;5.40;2.78;;;18.20;61.10;;;;;;5028604;28;20402;-78
2021/11/09 08:54:50;;;;;;;8.02;3.22;;;18.20;61.10;;;;;;5029334;28;20045;-79
2021/11/09 08:57:33;;;;;;;6.28;2.78;;;18.20;61.00;;;;;;5028874;28;20072;-78
2021/11/09 09:05:14;;;;;;;6.72;2.95;;;18.20;60.90;;;;;;5029163;28;20026;-77
2021/11/09 09:07:40;;;;;;;8.80;3.22;;;18.20;61.00;;;;;;5029162;28;20074;-77
2021/11/09 09:10:10;;;;;;;7.35;2.53;;;18.20;61.00;;;;;;5029229;28;20022;-77
2021/11/09 09:12:39;;;;;;;6.32;2.80;;;18.20;61.00;;;;;;5029129;28;20580;-77
2021/11/09 09:15:07;;;;;;;5.32;2.30;;;18.20;61.00;;;;;;5028868;28;20029;-77
2021/11/09 09:17:35;;;;;;;6.18;2.83;;;18.10;60.90;;;;;;5027689;28;20397;-77
2021/11/09 09:20:07;;;;;;;6.60;2.83;;;18.10;60.90;;;;;;5029028;28;20039;-77
2021/11/09 09:23:00;;;;;;;8.15;2.70;;;18.10;60.80;;;;;;5028666;28;20017;-77
2021/11/09 09:25:37;;;;;;;7.13;2.78;;;18.10;60.80;;;;;;5028358;28;20053;-77
2021/11/09 09:28:26;;;;;;;4.97;2.45;;;18.10;60.80;;;;;;5028860;28;20477;-77
2021/11/09 09:55:39;;;;;;;5.18;2.30;;;18.10;60.60;;;;;;5028007;28;20102;-77
2021/11/09 09:58:05;;;;;;;;;;;18.10;60.60;;;;;;5029119;28;20022;-77
2021/11/09 10:00:31;;;;;;;;;;;18.10;60.50;;;;;;5028646;28;19924;-78
2021/11/09 10:02:58;;;;;;;7.47;2.40;;;18.10;60.50;;;;;;5026738;28;20369;-77
2021/11/09 10:05:25;;;;;;;7.80;3.08;;;18.10;60.40;;;;;;5028082;28;20064;-75
2021/11/09 10:07:57;;;;;;;5.82;2.08;;;18.10;60.30;;;;;;5028071;28;20485;-76
2021/11/09 10:10:29;;;;;;;6.78;2.40;;;18.20;60.30;;;;;;5027895;28;20055;-76
2021/11/09 10:13:05;;;;;;;7.15;2.75;;;18.20;60.10;;;;;;5028026;28;20037;-77
2021/11/09 10:15:33;;;;;;;8.25;2.88;;;18.30;60.00;;;;;;5027870;28;20117;-77
2021/11/09 10:18:11;;;;;;;5.72;2.58;;;18.30;60.00;;;;;;5027914;28;20430;-76
2021/11/09 10:20:59;;;;;;;6.25;2.20;;;18.30;59.90;;;;;;5028395;28;20022;-76
2021/11/09 10:23:29;;;;;;;5.80;2.55;;;18.30;59.80;;;;;;5027742;28;20104;-76
2021/11/09 10:26:18;;;;;;;6.20;2.60;;;18.30;59.80;;;;;;5027838;28;20104;-76
2021/11/09 10:28:45;;;;;;;4.63;2.03;;;18.30;59.70;;;;;;5039355;28;20033;-76
2021/11/09 10:31:15;;;;;;;6.60;2.65;;;18.40;59.70;;;;;;5047650;28;20033;-77
2021/11/09 10:33:42;;;;;;;6.97;2.50;;;18.30;59.60;;;;;;5047605;28;20093;-76
2021/11/09 10:36:29;;;;;;;6.03;2.20;;;18.30;59.70;;;;;;5047720;28;20523;-75
2021/11/09 10:39:17;;;;;;;6.68;2.42;;;18.30;59.60;;;;;;5047494;28;20029;-77
2021/11/09 10:42:09;;;;;;;7.40;2.47;;;18.40;59.70;;;;;;5047933;28;20017;-77
2021/11/09 10:44:37;;;;;;;9.18;2.65;;;18.40;59.70;;;;;;5048029;28;20021;-78
2021/11/09 10:47:29;;;;;;;5.22;2.20;;;18.40;59.60;;;;;;5047420;28;20420;-78
2021/11/09 10:49:59;;;;;;;4.60;2.20;;;18.40;59.60;;;;;;5047573;28;20435;-77
2021/11/09 10:52:30;;;;;;;5.85;2.20;;;18.40;59.60;;;;;;5047264;28;20021;-77
2021/11/09 10:55:45;;;;;;;9.55;2.72;;;18.40;59.50;;;;;;5046596;28;20511;-77
2021/11/09 11:03:15;;;;;;;11.95;2.78;;;18.40;59.50;;;;;;5050869;28;20033;-78
2021/11/09 11:04:03;;;;;;;5.82;2.28;;;18.50;59.50;;;;;;5050825;28;20025;-78
2021/11/09 11:06:35;;;;;;;6.13;2.28;;;18.50;59.50;;;;;;5050640;28;20029;-77
2021/11/09 11:09:02;;;;;;;5.28;2.28;;;18.60;59.40;;;;;;5049337;28;20025;-78
2021/11/09 11:11:33;;;;;;;7.30;3.05;;;18.60;59.30;;;;;;5050381;28;20029;-78
2021/11/09 11:14:21;;;;;;;6.72;2.30;;;18.50;59.30;;;;;;5050342;28;20519;-77
2021/11/09 11:17:01;;;;;;;6.43;2.15;;;18.50;59.40;;;;;;5050777;28;20101;-77
2021/11/09 11:19:30;;;;;;;5.55;2.05;;;18.50;59.30;;;;;;5050180;28;20025;-77
2021/11/09 11:21:57;;;;;;;5.13;2.17;;;18.60;59.30;;;;;;5050525;28;20029;-78
2021/11/09 11:24:24;;;;;;;6.70;2.53;;;18.60;59.30;;;;;;5050388;28;20025;-77
2021/11/09 11:26:54;;;;;;;7.68;2.40;;;18.60;59.30;;;;;;5050702;28;20020;-78
2021/11/09 11:29:23;;;;;;;5.30;1.90;;;18.60;59.30;;;;;;5050288;28;20017;-78
2021/11/09 11:31:50;;;;;;;6.80;2.33;;;18.70;59.70;;;;;;5050723;28;20070;-79
2021/11/09 11:34:17;;;;;;;6.00;2.38;;;19.40;58.50;;;;;;5049977;28;20119;-79
2021/11/09 11:36:44;;;;;;;6.95;2.47;;;20.10;57.40;;;;;;5050072;28;20025;-79
2021/11/09 11:39:11;;;;;;;8.40;2.42;;;20.70;55.70;;;;;;5050208;28;20473;-77
2021/11/09 11:41:40;;;;;;;5.05;2.00;;;21.00;54.90;;;;;;5050794;28;20025;-78
2021/11/09 11:44:07;;;;;;;4.93;2.28;;;21.60;54.50;;;;;;5050638;28;20056;-78
2021/11/09 11:46:33;;;;;;;5.53;2.33;;;23.10;52.10;;;;;;5049918;28;20033;-77
2021/11/09 11:49:09;;;;;;;5.20;2.30;;;24.70;49.30;;;;;;5050276;28;20029;-77
2021/11/09 11:51:37;;;;;;;7.53;2.75;;;25.70;47.20;;;;;;5050463;28;20433;-78
2021/11/09 11:54:05;;;;;;;5.85;2.28;;;26.30;45.80;;;;;;5050053;28;20500;-78
2021/11/09 11:56:39;;;;;;;5.28;2.20;;;26.70;44.90;;;;;;5049778;28;20017;-77
2021/11/09 11:59:13;;;;;;;5.55;2.03;;;26.90;44.10;;;;;;5050291;28;20029;-77
2021/11/09 12:01:45;;;;;;;5.85;2.17;;;27.30;43.70;;;;;;5049719;28;20116;-78
2021/11/09 12:04:54;;;;;;;7.40;2.28;;;27.00;43.30;;;;;;5049989;28;20059;-77
2021/11/09 12:07:41;;;;;;;5.40;2.67;;;26.60;44.10;;;;;;5049673;28;20025;-78
2021/11/09 12:10:08;;;;;;;7.35;2.58;;;25.90;44.10;;;;;;5049025;28;20101;-77
2021/11/09 12:12:34;;;;;;;5.80;2.30;;;25.40;45.80;;;;;;5050574;28;20025;-77
2021/11/09 12:15:05;;;;;;;6.03;2.35;;;26.30;45.10;;;;;;5049776;28;20496;-77
2021/11/09 12:17:44;;;;;;;5.97;2.55;;;26.70;44.10;;;;;;5048146;28;20032;-78
2021/11/09 12:20:10;;;;;;;4.97;2.00;;;26.80;43.70;;;;;;5049774;28;20536;-78
2021/11/09 12:22:53;;;;;;;6.05;2.30;;;26.90;43.60;;;;;;5049752;28;20108;-79
2021/11/09 12:25:22;;;;;;;6.32;2.58;;;27.30;43.30;;;;;;5049693;28;20405;-78
2021/11/09 12:27:51;;;;;;;7.38;2.28;;;27.40;42.90;;;;;;5049753;28;20022;-79
2021/11/09 12:30:35;;;;;;;5.03;1.80;;;26.40;43.70;;;;;;5049424;28;20028;-77
2021/11/09 12:33:16;;;;;;;5.32;2.50;;;26.20;44.60;;;;;;5049747;28;20477;-79
2021/11/09 12:35:58;;;;;;;6.75;2.20;;;26.80;44.20;;;;;;5049597;28;20041;-78
2021/11/09 12:38:37;;;;;;;6.63;2.30;;;27.20;43.50;;;;;;5049311;28;20477;-78
2021/11/09 12:41:12;;;;;;;4.07;1.95;;;27.30;43.40;;;;;;5049195;28;20029;-77
2021/11/09 12:43:47;;;;;;;4.82;2.20;;;27.20;43.30;;;;;;5049708;28;20389;-79
2021/11/09 12:46:27;;;;;;;4.30;1.83;;;27.10;43.40;;;;;;5048973;28;20422;-77
2021/11/09 12:49:16;;;;;;;7.53;2.20;;;27.10;43.50;;;;;;5049342;28;20069;-78
2021/11/09 12:51:43;;;;;;;5.50;1.90;;;26.90;43.70;;;;;;5049205;28;20040;-78
2021/11/09 12:54:16;;;;;;;6.03;2.00;;;26.80;44.00;;;;;;5048917;28;20493;-79
2021/11/09 12:56:48;;;;;;;4.15;1.98;;;26.70;44.30;;;;;;5049227;28;20025;-79
2021/11/09 12:59:20;;;;;;;6.95;2.58;;;26.40;44.40;;;;;;5048930;28;20036;-79
2021/11/09 13:06:55;;;;;;;5.15;2.15;;;22.60;49.80;;;;;;5049254;28;20017;-77
2021/11/09 13:09:28;;;;;;;5.53;1.98;;;22.20;50.70;;;;;;5048532;28;20029;-78
2021/11/09 13:12:07;;;;;;;4.03;2.10;;;21.90;51.40;;;;;;5049015;28;20021;-79
2021/11/09 13:14:34;;;;;;;5.07;2.03;;;21.70;52.10;;;;;;5048452;28;20054;-79
2021/11/09 13:17:08;;;;;;;5.38;2.03;;;21.40;52.50;;;;;;5048917;28;20029;-78
2021/11/09 13:19:42;;;;;;;4.45;1.95;;;21.30;52.80;;;;;;5049124;28;20033;-79
2021/11/09 13:22:12;;;;;;;7.25;2.33;;;21.20;53.30;;;;;;5049072;28;20449;-78
2021/11/09 13:24:41;;;;;;;4.05;1.75;;;21.10;53.60;;;;;;5048835;28;20021;-78
2021/11/09 13:27:11;;;;;;;5.47;1.77;;;21.00;53.80;;;;;;5049065;28;20021;-79
2021/11/09 13:29:44;;;;;;;3.97;1.73;;;20.90;53.90;;;;;;5049173;28;20036;-78
2021/11/09 13:32:11;;;;;;;4.28;1.80;;;20.90;54.10;;;;;;5047264;28;20033;-79
2021/11/09 13:34:38;;;;;;;6.57;2.60;;;20.80;54.30;;;;;;5048716;28;20405;-79
2021/11/09 13:37:04;;;;;;;7.00;2.60;;;20.70;54.50;;;;;;5048810;28;20025;-78
2021/11/09 13:39:29;;;;;;;4.78;2.28;;;20.70;54.70;;;;;;5048307;28;20541;-78
2021/11/09 13:41:55;;;;;;;8.70;2.63;;;20.60;54.90;;;;;;5048577;28;20060;-79
2021/11/09 13:44:21;;;;;;;4.38;1.77;;;20.60;55.10;;;;;;5048435;28;20031;-78
2021/11/09 13:46:47;;;;;;;5.82;2.08;;;20.50;55.20;;;;;;5048576;28;20044;-78
2021/11/09 13:49:15;;;;;;;6.78;2.20;;;20.40;55.40;;;;;;5048233;28;20118;-78
2021/11/09 13:51:58;;;;;;;5.43;1.95;;;20.30;55.60;;;;;;5048330;28;20025;-79
2021/11/09 13:54:27;;;;;;;5.03;1.75;;;;;;;;;;5046754;28;20135;-78
2021/11/09 13:56:54;;;;;;;4.68;1.80;;;;;;;;;;5047029;28;20449;-78
2021/11/09 13:59:28;;;;;;;6.68;1.88;;;;;;;;;;5048139;28;20430;-78
2021/11/09 14:12:56;;;;;;;5.90;1.98;;;;;;;;;;5047987;28;20040;-77
2021/11/09 14:17:52;;;;;;;6.40;2.15;;;;;;;;;;5047968;28;20068;-77
2021/11/09 14:20:20;;;;;;;5.00;2.17;;;;;;;;;;5047858;28;20094;-77
2021/11/09 14:22:47;;;;;;;6.03;2.05;;;;;;;;;;5048060;28;20393;-78
2021/11/09 14:25:16;;;;;;;4.88;1.63;;;;;;;;;;5047857;28;20063;-77
2021/11/09 14:27:44;;;;;;;5.38;1.95;;;;;;;;;;5047885;28;20033;-77
2021/11/09 14:30:11;;;;;;;5.55;1.90;;;;;;;;;;5047778;28;20393;-77
2021/11/09 14:32:37;;;;;;;7.18;1.98;;;;;;;;;;5049155;28;20130;-77
2021/11/09 14:35:14;;;;;;;6.03;2.28;;;;;;;;;;5051406;28;20029;-77
2021/11/09 14:38:07;;;;;;;4.28;2.00;;;;;;;;;;5051296;28;20028;-78
2021/11/09 14:40:38;;;;;;;4.32;1.92;;;;;;;;;;5051247;28;20073;-78
2021/11/09 14:43:38;;;;;;;4.80;2.15;;;;;;;;;;5051570;28;20096;-78
2021/11/09 14:46:12;;;;;;;5.13;2.00;;;;;;;;;;5054890;28;20072;-77
2021/11/09 14:51:18;;;;;;;5.13;1.92;;;;;;;;;;5051386;28;20029;-78
2021/11/09 14:56:18;;;;;;;4.32;1.70;;;;;;;;;;5050991;28;20485;-79
2021/11/09 14:58:53;;;;;;;5.47;1.60;;;;;;;;;;5051069;28;20021;-79
2021/11/09 15:01:43;;;;;;;4.57;1.83;;;;;;;;;;5050898;28;20108;-78
2021/11/09 15:04:21;;;;;;;5.57;2.38;;;;;;;;;;5051184;28;20063;-78
2021/11/09 15:07:01;;;;;;;6.40;1.90;;;;;;;;;;5050761;28;20384;-79
2021/11/09 15:09:40;;;;;;;5.43;1.70;;;;;;;;;;5050815;28;20031;-79
2021/11/09 15:26:14;;;;;;;3.70;1.65;;;;;;;;;;5050462;28;20077;-77
2021/11/09 15:31:19;;;;;;;6.38;2.60;;;;;;;;;;5050457;28;20033;-78
2021/11/09 15:33:50;;;;;;;5.63;2.03;;;;;;;;;;5050734;28;20057;-79
2021/11/09 15:38:46;;;;;;;6.10;2.00;;;;;;;;;;5050506;28;20433;-77
2021/11/09 15:41:12;;;;;;;4.88;2.15;;;;;;;;;;5039272;28;20033;-77